createdAt,value
2023-02-19T00:01:18.364Z,88.79
2023-02-19T00:04:22.417Z,88.77
2023-02-19T00:07:24.306Z,88.92
2023-02-19T00:10:26.276Z,89.49
2023-02-19T00:13:28.535Z,89.29
2023-02-19T00:16:31.731Z,89.18
2023-02-19T00:19:33.610Z,89.14
2023-02-19T00:22:35.601Z,89.02
2023-02-19T00:25:38.222Z,89.04
2023-02-19T00:28:40.130Z,88.77
2023-02-19T00:31:42.721Z,89.04
2023-02-19T00:34:44.735Z,89.05
2023-02-19T00:37:46.646Z,88.72
2023-02-19T00:40:48.566Z,88.53
2023-02-19T00:44:15.685Z,88.63
2023-02-19T00:47:17.616Z,88.48
2023-02-19T00:50:19.616Z,88.72
2023-02-19T00:53:21.515Z,89.09
2023-02-19T00:56:23.771Z,88.62
2023-02-19T00:59:26.176Z,88.66
2023-02-19T01:02:28.329Z,88.60
2023-02-19T01:05:30.558Z,88.67
2023-02-19T01:08:33.341Z,89.08
2023-02-19T01:11:37.281Z,88.33
2023-02-19T01:14:39.720Z,88.60
2023-02-19T01:17:41.612Z,88.36
2023-02-19T01:20:44.846Z,88.28
2023-02-19T01:23:47.635Z,88.11
2023-02-19T01:26:49.536Z,87.94
2023-02-19T01:29:51.518Z,87.71
2023-02-19T01:32:53.475Z,87.79
2023-02-19T01:35:55.404Z,87.65
2023-02-19T01:39:00.515Z,87.46
2023-02-19T01:42:03.275Z,87.42
2023-02-19T01:45:25.416Z,87.14
2023-02-19T01:48:38.225Z,87.08
2023-02-19T01:51:47.557Z,86.96
2023-02-19T01:54:50.613Z,86.87
2023-02-19T01:57:54.648Z,87.08
2023-02-19T02:00:56.956Z,86.86
2023-02-19T02:03:59.935Z,86.95
2023-02-19T02:07:24.620Z,86.83
2023-02-19T02:10:26.574Z,86.71
2023-02-19T02:13:29.075Z,86.64
2023-02-19T02:16:59.663Z,86.59
2023-02-19T02:20:26.224Z,86.32
2023-02-19T02:23:33.918Z,86.24
2023-02-19T02:26:49.061Z,86.33
2023-02-19T02:30:27.314Z,85.90
2023-02-19T02:34:07.717Z,85.86
2023-02-19T02:37:10.333Z,85.63
2023-02-19T02:40:12.511Z,85.30
2023-02-19T02:43:14.503Z,85.28
2023-02-19T02:46:23.087Z,85.18
2023-02-19T02:49:27.514Z,85.23
2023-02-19T02:52:47.878Z,85.11
2023-02-19T02:55:53.429Z,84.98
2023-02-19T02:58:58.478Z,85.28
2023-02-19T03:02:12.583Z,85.29
2023-02-19T03:05:40.706Z,85.75
2023-02-19T03:09:16.486Z,85.37
2023-02-19T03:12:38.752Z,85.64
2023-02-19T03:16:05.935Z,85.68
2023-02-19T03:19:20.786Z,85.77
2023-02-19T03:22:34.828Z,85.76
2023-02-19T03:25:58.093Z,85.72
2023-02-19T03:29:24.104Z,85.57
2023-02-19T03:32:44.695Z,85.96
2023-02-19T03:35:52.899Z,85.81
2023-02-19T03:39:04.633Z,86.10
2023-02-19T03:42:15.359Z,85.79
2023-02-19T03:45:33.451Z,85.84
2023-02-19T03:48:38.773Z,85.55
2023-02-19T03:51:49.036Z,85.72
2023-02-19T03:55:09.587Z,85.41
2023-02-19T03:58:30.663Z,85.49
2023-02-19T04:01:47.114Z,85.64
2023-02-19T04:04:56.435Z,85.79
2023-02-19T04:08:04.943Z,85.41
2023-02-19T04:11:16.570Z,85.30
2023-02-19T04:14:43.338Z,85.59
2023-02-19T04:17:50.806Z,85.36
2023-02-19T04:20:53.411Z,85.30
2023-02-19T04:23:59.429Z,85.28
2023-02-19T04:27:01.782Z,84.96
2023-02-19T04:30:05.392Z,85.37
2023-02-19T04:33:07.313Z,85.04
2023-02-19T04:36:11.710Z,84.94
2023-02-19T04:39:13.706Z,85.29
2023-02-19T04:42:15.702Z,85.05
2023-02-19T04:45:17.835Z,84.65
2023-02-19T04:48:19.747Z,84.95
2023-02-19T04:51:21.713Z,85.08
2023-02-19T04:54:23.769Z,84.93
2023-02-19T04:57:25.748Z,84.93
2023-02-19T05:00:27.669Z,84.99
2023-02-19T05:03:29.762Z,85.27
2023-02-19T05:06:31.706Z,85.08
2023-02-19T05:09:33.679Z,85.37
2023-02-19T05:12:35.595Z,85.11
2023-02-19T05:15:37.582Z,85.14
2023-02-19T05:18:40.257Z,85.17
2023-02-19T05:21:42.259Z,84.77
2023-02-19T05:24:44.439Z,84.64
2023-02-19T05:27:46.379Z,84.47
2023-02-19T05:30:52.590Z,84.31
2023-02-19T05:33:57.391Z,84.13
2023-02-19T05:36:59.316Z,83.83
2023-02-19T05:40:01.222Z,83.80
2023-02-19T05:43:03.755Z,83.69
2023-02-19T05:46:07.087Z,83.71
2023-02-19T05:49:09.010Z,83.55
2023-02-19T05:52:10.926Z,83.09
2023-02-19T05:55:12.861Z,82.88
2023-02-19T05:58:14.826Z,83.03
2023-02-19T06:01:18.788Z,82.76
2023-02-19T06:04:20.931Z,82.78
2023-02-19T06:07:22.926Z,82.36
2023-02-19T06:10:24.808Z,81.89
2023-02-19T06:13:26.639Z,81.71
2023-02-19T06:16:29.289Z,81.38
2023-02-19T06:19:31.216Z,81.17
2023-02-19T06:22:33.110Z,80.90
2023-02-19T06:25:35.008Z,80.45
2023-02-19T06:28:37.865Z,80.08
2023-02-19T06:31:39.915Z,79.98
2023-02-19T06:34:41.887Z,79.24
2023-02-19T06:37:46.989Z,78.67
2023-02-19T06:40:49.940Z,78.19
2023-02-19T06:43:51.747Z,77.44
2023-02-19T06:46:56.473Z,77.54
2023-02-19T06:49:59.125Z,76.54
2023-02-19T06:53:00.955Z,76.38
2023-02-19T06:56:24.731Z,74.73
2023-02-19T06:59:26.872Z,74.84
2023-02-19T07:02:28.677Z,74.56
2023-02-19T07:05:30.563Z,73.64
2023-02-19T07:08:32.478Z,73.31
2023-02-19T07:11:36.163Z,73.08
2023-02-19T07:14:38.081Z,72.56
2023-02-19T07:17:39.926Z,71.85
2023-02-19T07:20:41.915Z,71.10
2023-02-19T07:23:44.851Z,70.52
2023-02-19T07:26:46.618Z,69.81
2023-02-19T07:29:48.525Z,69.77
2023-02-19T07:32:50.405Z,68.82
2023-02-19T07:35:52.535Z,68.23
2023-02-19T07:38:58.531Z,66.86
2023-02-19T07:42:00.686Z,67.41
2023-02-19T07:45:02.689Z,66.47
2023-02-19T07:48:04.587Z,65.69
2023-02-19T07:51:08.605Z,65.28
2023-02-19T07:54:11.614Z,64.22
2023-02-19T07:57:14.538Z,63.52
2023-02-19T08:00:16.466Z,62.87
2023-02-19T08:03:18.460Z,63.55
2023-02-19T08:06:21.659Z,62.69
2023-02-19T08:09:23.530Z,62.12
2023-02-19T08:12:44.061Z,61.15
2023-02-19T08:16:29.546Z,60.24
2023-02-19T08:19:35.348Z,59.44
2023-02-19T08:22:37.227Z,58.79
2023-02-19T08:25:39.963Z,58.37
2023-02-19T08:28:42.148Z,57.83
2023-02-19T08:31:44.276Z,57.75
2023-02-19T08:34:46.271Z,57.61
2023-02-19T08:37:48.098Z,56.84
2023-02-19T08:40:50.233Z,57.41
2023-02-19T08:43:52.224Z,56.75
2023-02-19T08:46:54.138Z,56.07
2023-02-19T08:49:56.002Z,55.44
2023-02-19T08:52:59.861Z,54.86
2023-02-19T08:56:07.014Z,54.38
2023-02-19T08:59:09.043Z,53.82
2023-02-19T09:02:12.816Z,53.99
2023-02-19T09:05:14.791Z,53.15
2023-02-19T09:08:16.699Z,53.34
2023-02-19T09:11:18.578Z,53.45
2023-02-19T09:14:20.492Z,52.16
2023-02-19T09:17:22.449Z,52.69
2023-02-19T09:20:24.553Z,53.04
2023-02-19T09:23:26.463Z,52.69
2023-02-19T09:26:28.358Z,52.62
2023-02-19T09:29:30.448Z,52.43
2023-02-19T09:32:32.692Z,52.79
2023-02-19T09:35:34.664Z,52.46
2023-02-19T09:38:36.562Z,51.64
2023-02-19T09:41:47.260Z,50.98
2023-02-19T09:44:52.250Z,51.24
2023-02-19T09:47:58.723Z,51.53
2023-02-19T09:51:02.385Z,51.90
2023-02-19T09:54:07.982Z,51.55
2023-02-19T09:57:20.622Z,51.94
2023-02-19T10:00:29.145Z,51.61
2023-02-19T10:03:35.490Z,51.35
2023-02-19T10:06:38.161Z,50.73
2023-02-19T10:09:40.697Z,50.70
2023-02-19T10:12:47.278Z,50.97
2023-02-19T10:15:54.896Z,50.92
2023-02-19T10:18:57.166Z,51.05
2023-02-19T10:22:00.719Z,51.21
2023-02-19T10:25:02.937Z,51.55
2023-02-19T10:28:07.197Z,52.09
2023-02-19T10:31:27.448Z,52.77
2023-02-19T10:34:29.403Z,52.37
2023-02-19T10:37:32.031Z,52.30
2023-02-19T10:40:34.209Z,52.40
2023-02-19T10:43:40.869Z,52.03
2023-02-19T10:46:47.226Z,52.15
2023-02-19T10:49:51.371Z,52.29
2023-02-19T10:52:55.934Z,52.51
2023-02-19T10:56:08.435Z,52.45
2023-02-19T10:59:16.374Z,52.49
2023-02-19T11:02:20.574Z,53.45
2023-02-19T11:05:23.350Z,54.04
2023-02-19T11:08:25.317Z,54.37
2023-02-19T11:11:40.176Z,53.86
2023-02-19T11:14:44.549Z,54.10
2023-02-19T11:17:54.933Z,54.29
2023-02-19T11:20:58.771Z,55.12
2023-02-19T11:24:03.773Z,55.02
2023-02-19T11:27:16.155Z,55.31
2023-02-19T11:30:30.195Z,54.88
2023-02-19T11:33:32.334Z,55.20
2023-02-19T11:36:36.495Z,55.56
2023-02-19T11:39:40.912Z,55.91
2023-02-19T11:42:56.709Z,56.18
2023-02-19T11:46:09.832Z,57.05
2023-02-19T11:49:20.666Z,56.95
2023-02-19T11:52:30.224Z,57.11
2023-02-19T11:55:47.750Z,57.33
2023-02-19T11:59:00.953Z,57.42
2023-02-19T12:02:03.161Z,57.61
2023-02-19T12:05:33.924Z,57.65
2023-02-19T12:08:51.163Z,57.72
2023-02-19T12:12:02.075Z,58.31
2023-02-19T12:15:16.090Z,58.43
2023-02-19T12:18:41.014Z,58.45
2023-02-19T12:22:10.529Z,59.04
2023-02-19T12:25:18.760Z,59.09
2023-02-19T12:28:40.388Z,59.42
2023-02-19T12:32:07.843Z,59.55
2023-02-19T12:35:19.666Z,59.54
2023-02-19T12:38:32.564Z,59.51
2023-02-19T12:41:47.805Z,59.29
2023-02-19T12:44:58.568Z,59.11
2023-02-19T12:48:19.773Z,59.03
2023-02-19T12:51:27.849Z,59.31
2023-02-19T12:54:43.415Z,59.52
2023-02-19T12:57:45.882Z,59.20
2023-02-19T13:00:53.489Z,59.53
2023-02-19T13:04:17.150Z,59.54
2023-02-19T13:08:00.568Z,59.43
2023-02-19T13:11:18.194Z,59.71
2023-02-19T13:14:53.138Z,60.07
2023-02-19T13:18:01.327Z,59.85
2023-02-19T13:21:06.318Z,60.36
2023-02-19T13:24:15.469Z,59.98
2023-02-19T13:27:48.302Z,60.13
2023-02-19T13:31:27.534Z,60.18
2023-02-19T13:34:41.653Z,60.29
2023-02-19T13:37:44.306Z,60.42
2023-02-19T13:40:59.108Z,61.07
2023-02-19T13:44:05.652Z,61.28
2023-02-19T13:47:46.246Z,61.57
2023-02-19T13:50:48.228Z,61.93
2023-02-19T13:53:56.222Z,62.59
2023-02-19T13:57:23.222Z,62.59
2023-02-19T14:01:05.524Z,62.97
2023-02-19T14:04:19.110Z,63.58
2023-02-19T14:07:35.336Z,63.55
2023-02-19T14:10:46.496Z,63.65
2023-02-19T14:13:51.478Z,63.75
2023-02-19T14:17:04.769Z,64.17
2023-02-19T14:20:09.636Z,64.36
2023-02-19T14:23:23.607Z,64.53
2023-02-19T14:26:27.283Z,64.67
2023-02-19T14:29:29.449Z,64.74
2023-02-19T14:32:31.439Z,65.19
2023-02-19T14:35:46.017Z,65.88
2023-02-19T14:38:55.446Z,65.94
2023-02-19T14:42:05.287Z,66.48
2023-02-19T14:45:08.255Z,66.85
2023-02-19T14:48:15.654Z,67.66
2023-02-19T14:51:30.768Z,67.14
2023-02-19T14:54:41.071Z,67.57
2023-02-19T14:57:46.112Z,67.36
2023-02-19T15:00:48.197Z,68.03
2023-02-19T15:03:50.050Z,67.79
2023-02-19T15:06:56.357Z,68.02
2023-02-19T15:10:05.004Z,68.09
2023-02-19T15:13:12.193Z,68.15
2023-02-19T15:16:19.750Z,68.29
2023-02-19T15:19:22.932Z,68.45
2023-02-19T15:22:28.280Z,68.76
2023-02-19T15:25:49.502Z,69.08
2023-02-19T15:29:02.839Z,69.18
2023-02-19T15:32:18.180Z,69.72
2023-02-19T15:35:22.913Z,69.89
2023-02-19T15:38:25.581Z,70.03
2023-02-19T15:41:32.857Z,70.38
2023-02-19T15:44:53.512Z,70.44
2023-02-19T15:47:58.265Z,70.73
2023-02-19T15:51:09.616Z,70.36
2023-02-19T15:54:37.160Z,71.06
2023-02-19T15:57:44.272Z,70.96
2023-02-19T16:00:55.143Z,71.06
2023-02-19T16:03:58.518Z,70.93
2023-02-19T16:07:02.343Z,71.08
2023-02-19T16:10:07.756Z,70.98
2023-02-19T16:13:12.027Z,71.41
2023-02-19T16:16:20.480Z,71.31
2023-02-19T16:19:29.858Z,71.71
2023-02-19T16:22:41.351Z,71.47
2023-02-19T16:25:44.625Z,71.66
2023-02-19T16:28:51.509Z,72.18
2023-02-19T16:32:03.435Z,71.76
2023-02-19T16:35:26.331Z,72.22
2023-02-19T16:38:28.286Z,72.39
2023-02-19T16:41:30.252Z,72.16
2023-02-19T16:44:36.052Z,72.58
2023-02-19T16:47:41.663Z,72.77
2023-02-19T16:50:43.585Z,72.76
2023-02-19T16:53:45.556Z,72.72
2023-02-19T16:56:47.502Z,72.67
2023-02-19T16:59:49.570Z,73.04
2023-02-19T17:02:54.615Z,72.73
2023-02-19T17:05:56.715Z,73.02
2023-02-19T17:08:59.226Z,72.74
2023-02-19T17:12:01.078Z,73.23
2023-02-19T17:15:03.166Z,72.99
2023-02-19T17:18:05.130Z,73.33
2023-02-19T17:21:23.036Z,73.61
2023-02-19T17:24:25.372Z,73.45
2023-02-19T17:27:27.267Z,73.87
2023-02-19T17:30:32.480Z,73.80
2023-02-19T17:33:34.372Z,74.30
2023-02-19T17:36:38.096Z,74.08
2023-02-19T17:39:40.056Z,74.04
2023-02-19T17:42:41.949Z,74.36
2023-02-19T17:45:43.850Z,74.23
2023-02-19T17:48:45.871Z,74.31
2023-02-19T17:51:47.758Z,74.32
2023-02-19T17:54:49.589Z,74.41
2023-02-19T17:57:52.316Z,75.21
2023-02-19T18:00:54.450Z,75.51
2023-02-19T18:03:56.420Z,75.67
2023-02-19T18:06:58.410Z,75.20
2023-02-19T18:10:00.313Z,75.88
2023-02-19T18:13:02.274Z,75.84
2023-02-19T18:16:05.989Z,76.10
2023-02-19T18:19:07.917Z,76.34
2023-02-19T18:22:09.829Z,76.20
2023-02-19T18:25:11.840Z,76.97
2023-02-19T18:28:15.008Z,76.53
2023-02-19T18:31:17.170Z,76.66
2023-02-19T18:34:19.729Z,76.98
2023-02-19T18:37:23.524Z,77.52
2023-02-19T18:40:26.067Z,77.19
2023-02-19T18:43:28.056Z,76.93
2023-02-19T18:46:32.259Z,76.87
2023-02-19T18:49:34.627Z,77.19
2023-02-19T18:52:36.491Z,77.29
2023-02-19T18:55:38.467Z,77.25
2023-02-19T18:58:40.493Z,77.82
2023-02-19T19:01:43.265Z,77.90
2023-02-19T19:04:50.131Z,77.58
2023-02-19T19:07:56.573Z,77.68
2023-02-19T19:10:58.526Z,78.13
2023-02-19T19:14:00.400Z,77.83
2023-02-19T19:17:02.350Z,77.71
2023-02-19T19:20:04.858Z,78.24
2023-02-19T19:23:06.914Z,78.49
2023-02-19T19:26:09.447Z,77.81
2023-02-19T19:29:16.214Z,78.11
2023-02-19T19:32:18.228Z,78.13
2023-02-19T19:35:20.665Z,78.28
2023-02-19T19:38:22.693Z,78.39
2023-02-19T19:41:24.602Z,77.83
2023-02-19T19:44:26.525Z,78.45
2023-02-19T19:47:28.576Z,77.79
2023-02-19T19:50:30.803Z,77.92
2023-02-19T19:53:32.706Z,77.70
2023-02-19T19:56:44.280Z,77.55
2023-02-19T19:59:51.058Z,78.17
2023-02-19T20:02:52.992Z,77.97
2023-02-19T20:05:55.616Z,77.78
2023-02-19T20:08:58.075Z,77.61
2023-02-19T20:11:59.994Z,77.82
2023-02-19T20:15:02.052Z,77.98
2023-02-19T20:18:04.100Z,77.76
2023-02-19T20:21:09.647Z,77.87
2023-02-19T20:24:19.979Z,77.61
2023-02-19T20:27:22.619Z,78.09
2023-02-19T20:30:25.176Z,77.72
2023-02-19T20:33:27.066Z,77.46
2023-02-19T20:36:29.474Z,77.64
2023-02-19T20:39:32.002Z,77.53
2023-02-19T20:42:33.942Z,78.23
2023-02-19T20:45:35.874Z,77.92
2023-02-19T20:48:37.981Z,78.05
2023-02-19T20:52:01.017Z,77.94
2023-02-19T20:55:02.952Z,77.75
2023-02-19T20:58:04.859Z,78.16
2023-02-19T21:01:07.304Z,78.33
2023-02-19T21:04:09.509Z,77.94
2023-02-19T21:07:11.419Z,77.78
2023-02-19T21:10:13.537Z,78.24
2023-02-19T21:13:15.579Z,78.05
2023-02-19T21:16:17.815Z,77.76
2023-02-19T21:19:20.916Z,78.18
2023-02-19T21:22:22.975Z,78.49
2023-02-19T21:25:25.005Z,78.08
2023-02-19T21:28:26.872Z,78.08
2023-02-19T21:31:43.649Z,78.46
2023-02-19T21:34:45.664Z,78.32
2023-02-19T21:37:47.781Z,78.43
2023-02-19T21:40:50.787Z,78.36
2023-02-19T21:43:56.226Z,78.48
2023-02-19T21:46:58.167Z,78.72
2023-02-19T21:50:00.130Z,78.27
2023-02-19T21:53:02.092Z,78.55
2023-02-19T21:56:04.255Z,78.42
2023-02-19T21:59:06.174Z,78.54
2023-02-19T22:02:09.468Z,78.40
2023-02-19T22:05:11.475Z,78.52
2023-02-19T22:08:15.656Z,78.48
2023-02-19T22:11:17.603Z,78.21
2023-02-19T22:14:19.587Z,78.14
2023-02-19T22:17:21.547Z,78.30
2023-02-19T22:20:23.428Z,78.05
2023-02-19T22:23:25.330Z,77.94
2023-02-19T22:26:30.714Z,77.72
2023-02-19T22:29:32.677Z,77.53
2023-02-19T22:32:34.723Z,77.75
2023-02-19T22:35:36.712Z,77.76
2023-02-19T22:38:38.645Z,77.54
2023-02-19T22:41:43.528Z,77.83
2023-02-19T22:44:45.452Z,77.62
2023-02-19T22:47:47.404Z,77.67
2023-02-19T22:50:49.262Z,77.82
2023-02-19T22:53:56.458Z,78.13
2023-02-19T22:56:58.575Z,78.21
2023-02-19T23:00:00.474Z,78.23
2023-02-19T23:03:02.377Z,78.06
2023-02-19T23:06:04.977Z,78.40
2023-02-19T23:09:15.351Z,78.34
2023-02-19T23:12:17.315Z,79.02
2023-02-19T23:15:19.376Z,78.34
2023-02-19T23:18:21.315Z,78.83
2023-02-19T23:21:23.468Z,78.51
2023-02-19T23:24:25.555Z,78.76
2023-02-19T23:27:28.648Z,78.91
2023-02-19T23:30:30.581Z,78.99
2023-02-19T23:33:32.679Z,78.71
2023-02-19T23:36:40.349Z,78.96
2023-02-19T23:39:42.382Z,78.90
2023-02-19T23:42:44.368Z,79.42
2023-02-19T23:45:46.482Z,79.00
2023-02-19T23:48:48.467Z,79.05
2023-02-19T23:51:50.473Z,79.66
2023-02-19T23:54:52.355Z,79.59
2023-02-19T23:57:54.334Z,79.57
